Chembulk Gibraltar — 9VFA5 — position and weather

sailwx.info

Track history (hours):
 
Tides and Currents Weather Stations Pressure Air Temp Water Temp Dewpoint Dewpoint Depression Visibility Wind Speed Wind Dir Waves Ship Positions

Chembulk Gibraltar

Last reported at 2015-Feb-21 04:03 UTC. Time now 2015-Mar-03 18:50 UTC.
Position N 29°30' W 094°52'.
Warning: this ship's position is 10 days out of date.

Length 143 m; draft 9.4 m.

Type: Ship (hazmat cat B). MMSI: 565722000.

Date/timePositionNaut miles runAvg speedWind from/ knotsBaromVisibWave heightAir tempDewpointWater temp
2015-Feb-21 04:03N 29°30' W 094°52'611.9
2015-Feb-21 03:33N 29°35' W 094°56'1010.3
2015-Feb-21 02:33N 29°44' W 095°01'6 5.5
2015-Feb-21 01:33N 29°44' W 095°08'0 0.0
2015-Feb-21 00:08N 29°44' W 095°08'0 0.0
2015-Feb-20 20:26N 29°44' W 095°08'0 0.0
2015-Feb-20 19:32N 29°44' W 095°08'0 0.0
2015-Feb-20 18:23N 29°44' W 095°08'0 0.0
2015-Feb-20 17:32N 29°44' W 095°08'1325662.5
2015-Feb-20 15:32N 14°01' W 111°51'13251324.3
2015-Feb-20 14:32N 29°44' W 095°08'0 0.0
2015-Feb-20 13:32N 29°44' W 095°08'0 0.0
2015-Feb-20 12:14N 29°44' W 095°08'0 0.0
2015-Feb-20 11:29N 29°44' W 095°08'0 0.0
2015-Feb-20 10:29N 29°44' W 095°08'0 0.0
2015-Feb-20 09:29N 29°44' W 095°08'0 0.0
2015-Feb-20 08:32N 29°44' W 095°08'0 0.0
2015-Feb-20 07:23N 29°44' W 095°08'0 0.0
2015-Feb-20 06:32N 29°44' W 095°08'0 0.0
2015-Feb-20 05:32N 29°44' W 095°08'0 0.0
2015-Feb-20 04:29N 29°44' W 095°08'0 0.0
2015-Feb-20 03:29N 29°44' W 095°08'0 0.0
2015-Feb-20 02:32N 29°44' W 095°08'0 0.0
2015-Feb-20 01:32N 29°44' W 095°08'0 0.0
2015-Feb-20 00:32N 29°44' W 095°08'0 0.0
2015-Feb-19 23:32N 29°44' W 095°08'0 0.0
2015-Feb-19 22:32N 29°44' W 095°08'0 0.0
2015-Feb-19 21:29N 29°44' W 095°08'0 0.0
2015-Feb-19 20:19N 29°44' W 095°08'0 0.0
2015-Feb-19 19:28N 29°44' W 095°08'0 0.0
2015-Feb-19 18:31N 29°44' W 095°08'0 0.0
2015-Feb-19 17:28N 29°44' W 095°08'0 0.0
2015-Feb-19 15:16N 29°44' W 095°08'0 0.0
2015-Feb-19 14:28N 29°44' W 095°08'0 0.0
2015-Feb-19 13:28N 29°44' W 095°08'0 0.0
2015-Feb-19 12:22N 29°44' W 095°08'0 0.0
2015-Feb-19 11:31N 29°44' W 095°08'0 0.0
2015-Feb-19 10:31N 29°44' W 095°08'0 0.0
2015-Feb-19 09:31N 29°44' W 095°08'0 0.0
2015-Feb-19 08:31N 29°44' W 095°08'0 0.0
2015-Feb-19 07:31N 29°44' W 095°08'0 0.0
2015-Feb-19 06:31N 29°44' W 095°08'0 0.0
2015-Feb-19 05:31N 29°44' W 095°08'0 0.0
2015-Feb-19 04:28N 29°44' W 095°08'0 0.0
2015-Feb-19 03:25N 29°44' W 095°08'0 0.0
2015-Feb-19 02:28N 29°44' W 095°08'0 0.0
2015-Feb-19 01:28N 29°44' W 095°08'0 0.1
2015-Feb-18 22:33N 29°44' W 095°08'5 5.1
2015-Feb-18 21:33N 29°44' W 095°02'9 9.3
2015-Feb-18 20:33N 29°36' W 094°57'1212.3
2015-Feb-18 19:33N 29°25' W 094°50'  
2015-Feb-15 07:27N 29°14' W 094°39'0 0.0
2015-Feb-15 06:30N 29°14' W 094°39'0 0.0
2015-Feb-15 05:30N 29°14' W 094°39'0 0.0
2015-Feb-15 04:30N 29°14' W 094°39'  
2015-Feb-12 21:22N 29°22' W 094°48'1011.3
2015-Feb-12 20:30N 29°31' W 094°53'1111.8
2015-Feb-12 19:33N 29°41' W 094°59'7 7.5
2015-Feb-12 18:33N 29°45' W 095°06'0 0.0
2015-Feb-11 23:14N 29°45' W 095°06'1 1.2
2015-Feb-11 22:33N 29°45' W 095°06'6 6.4
2015-Feb-11 21:33N 29°42' W 094°60'9 9.0
2015-Feb-11 20:33N 29°34' W 094°55'1110.3
2015-Feb-11 19:32N 29°24' W 094°49'  
Track history (hours):
 
Tides and Currents Weather Stations Pressure Air Temp Water Temp Dewpoint Dewpoint Depression Visibility Wind Speed Wind Dir Waves Ship Positions

Chembulk Gibraltar

Last reported at 2015-Feb-21 04:03 UTC. Time now 2015-Mar-03 18:50 UTC.
Position N 29°30' W 094°52'.
Warning: this ship's position is 10 days out of date.

Length 143 m; draft 9.4 m.

Type: Ship (hazmat cat B). MMSI: 565722000.

Date/timePositionNaut miles runAvg speedWind from/ knotsBaromVisibWave heightAir tempDewpointWater temp
2015-Feb-21 04:03N 29°30' W 094°52'611.9
2015-Feb-21 03:33N 29°35' W 094°56'1010.3
2015-Feb-21 02:33N 29°44' W 095°01'6 5.5
2015-Feb-21 01:33N 29°44' W 095°08'0 0.0
2015-Feb-21 00:08N 29°44' W 095°08'0 0.0
2015-Feb-20 20:26N 29°44' W 095°08'0 0.0
2015-Feb-20 19:32N 29°44' W 095°08'0 0.0
2015-Feb-20 18:23N 29°44' W 095°08'0 0.0
2015-Feb-20 17:32N 29°44' W 095°08'1325662.5
2015-Feb-20 15:32N 14°01' W 111°51'13251324.3
2015-Feb-20 14:32N 29°44' W 095°08'0 0.0
2015-Feb-20 13:32N 29°44' W 095°08'0 0.0
2015-Feb-20 12:14N 29°44' W 095°08'0 0.0
2015-Feb-20 11:29N 29°44' W 095°08'0 0.0
2015-Feb-20 10:29N 29°44' W 095°08'0 0.0
2015-Feb-20 09:29N 29°44' W 095°08'0 0.0
2015-Feb-20 08:32N 29°44' W 095°08'0 0.0
2015-Feb-20 07:23N 29°44' W 095°08'0 0.0
2015-Feb-20 06:32N 29°44' W 095°08'0 0.0
2015-Feb-20 05:32N 29°44' W 095°08'0 0.0
2015-Feb-20 04:29N 29°44' W 095°08'0 0.0
2015-Feb-20 03:29N 29°44' W 095°08'0 0.0
2015-Feb-20 02:32N 29°44' W 095°08'0 0.0
2015-Feb-20 01:32N 29°44' W 095°08'0 0.0
2015-Feb-20 00:32N 29°44' W 095°08'0 0.0
2015-Feb-19 23:32N 29°44' W 095°08'0 0.0
2015-Feb-19 22:32N 29°44' W 095°08'0 0.0
2015-Feb-19 21:29N 29°44' W 095°08'0 0.0
2015-Feb-19 20:19N 29°44' W 095°08'0 0.0
2015-Feb-19 19:28N 29°44' W 095°08'0 0.0
2015-Feb-19 18:31N 29°44' W 095°08'0 0.0
2015-Feb-19 17:28N 29°44' W 095°08'0 0.0
2015-Feb-19 15:16N 29°44' W 095°08'0 0.0
2015-Feb-19 14:28N 29°44' W 095°08'0 0.0
2015-Feb-19 13:28N 29°44' W 095°08'0 0.0
2015-Feb-19 12:22N 29°44' W 095°08'0 0.0
2015-Feb-19 11:31N 29°44' W 095°08'0 0.0
2015-Feb-19 10:31N 29°44' W 095°08'0 0.0
2015-Feb-19 09:31N 29°44' W 095°08'0 0.0
2015-Feb-19 08:31N 29°44' W 095°08'0 0.0
2015-Feb-19 07:31N 29°44' W 095°08'0 0.0
2015-Feb-19 06:31N 29°44' W 095°08'0 0.0
2015-Feb-19 05:31N 29°44' W 095°08'0 0.0
2015-Feb-19 04:28N 29°44' W 095°08'0 0.0
2015-Feb-19 03:25N 29°44' W 095°08'0 0.0
2015-Feb-19 02:28N 29°44' W 095°08'0 0.0
2015-Feb-19 01:28N 29°44' W 095°08'0 0.1
2015-Feb-18 22:33N 29°44' W 095°08'5 5.1
2015-Feb-18 21:33N 29°44' W 095°02'9 9.3
2015-Feb-18 20:33N 29°36' W 094°57'1212.3
2015-Feb-18 19:33N 29°25' W 094°50'  
2015-Feb-15 07:27N 29°14' W 094°39'0 0.0
2015-Feb-15 06:30N 29°14' W 094°39'0 0.0
2015-Feb-15 05:30N 29°14' W 094°39'0 0.0
2015-Feb-15 04:30N 29°14' W 094°39'  
2015-Feb-12 21:22N 29°22' W 094°48'1011.3
2015-Feb-12 20:30N 29°31' W 094°53'1111.8
2015-Feb-12 19:33N 29°41' W 094°59'7 7.5
2015-Feb-12 18:33N 29°45' W 095°06'0 0.0
2015-Feb-11 23:14N 29°45' W 095°06'1 1.2
2015-Feb-11 22:33N 29°45' W 095°06'6 6.4
2015-Feb-11 21:33N 29°42' W 094°60'9 9.0
2015-Feb-11 20:33N 29°34' W 094°55'1110.3
2015-Feb-11 19:32N 29°24' W 094°49'  

Dump ship's entire track history